Time;durP1;ratioP1;P1;durP2;ratioP2;P2;SDS_P1;SDS_P2;PMS_P1;PMS_P2;Temp;Humidity;BMP_temperature;BMP_pressure;BME280_temperature;BME280_humidity;BME280_pressure;Samples;Min_cycle;Max_cycle;Signal;HPM_P1;HPM_P2
2022/03/01 00:00:18;;;;;;;;;;;;;;;8.29;93.06;100177.72;5076593;28;19952;-59
2022/03/01 00:02:44;;;;;;;;;;;;;;;8.45;92.21;100175.97;5076420;28;19920;-60
2022/03/01 00:08:17;;;;;;;;;;;;;;;7.70;100.00;100193.25;5074824;28;20280;-58
2022/03/01 00:29:45;;;;;;;;;;;;;;;7.61;100.00;100184.72;5076284;28;20032;-59
2022/03/01 00:32:10;;;;;;;;;;;;;;;7.94;100.00;100184.66;5076898;28;20023;-60
2022/03/01 00:34:36;;;;;;;;;;;;;;;7.84;98.47;100175.25;5075161;28;20015;-60
2022/03/01 00:37:01;;;;;;;;;;;;;;;8.11;98.21;100183.75;5073616;28;19920;-60
2022/03/01 00:39:27;;;;;;;;;;;;;;;7.67;98.78;100182.16;5075361;28;19920;-60
2022/03/01 00:48:01;;;;;;;;;;;;;;;7.25;100.00;100178.72;5070798;28;19920;-60
2022/03/01 01:28:02;;;;;;;;;;;;;;;6.84;100.00;100146.25;5074848;28;19916;-61
2022/03/01 01:39:41;;;;;;;;;;;;;;;7.35;100.00;100149.72;5076351;28;20955;-61
2022/03/01 01:42:07;;;;;;;;;;;;;;;6.58;98.50;100153.88;5080183;28;19920;-60
2022/03/01 01:44:33;;;;;;;;;;;;;;;7.64;99.11;100136.00;5077843;28;19977;-61
2022/03/01 01:46:58;;;;;;;;;;;;;;;8.05;97.05;100137.59;5078664;28;20099;-61
2022/03/01 01:49:24;;;;;;;;;;;;;;;7.68;95.89;100141.09;5079201;28;19912;-60
2022/03/01 01:51:49;;;;;;;;;;;;;;;8.05;96.13;100140.16;5075769;28;19916;-60
2022/03/01 01:54:15;;;;;;;;;;;;;;;7.54;98.91;100155.66;5081122;28;19916;-61
2022/03/01 01:56:41;;;;;;;;;;;;;;;7.58;96.92;100142.00;5061020;28;19924;-59
2022/03/01 01:59:06;;;;;;;;;;;;;;;7.21;99.77;100151.44;5077805;28;20413;-59
2022/03/01 02:01:32;;;;;;;;;;;;;;;7.66;99.64;100144.53;5078691;28;19920;-59
2022/03/01 02:04:01;;;;;;;;;;;;;;;7.42;100.00;100146.28;5076967;28;20246;-60
2022/03/01 02:06:27;;;;;;;;;;;;;;;7.10;97.69;100148.84;5079450;28;19927;-61
2022/03/01 02:08:53;;;;;;;;;;;;;;;6.08;100.00;100155.41;5075186;28;19924;-59
2022/03/01 02:11:18;;;;;;;;;;;;;;;5.75;100.00;100173.94;5077780;28;19920;-61
2022/03/01 02:13:43;;;;;;;;;;;;;;;5.82;100.00;100163.75;5079919;28;19922;-60
2022/03/01 02:16:09;;;;;;;;;;;;;;;5.83;100.00;100162.91;5080159;28;20326;-60
2022/03/01 02:18:34;;;;;;;;;;;;;;;6.57;100.00;100159.84;5077761;28;19966;-60
2022/03/01 02:20:59;;;;;;;;;;;;;;;6.69;100.00;100158.19;5079985;28;19928;-60
2022/03/01 02:23:25;;;;;;;;;;;;;;;6.42;100.00;100163.22;5079406;28;20042;-61
2022/03/01 02:25:50;;;;;;;;;;;;;;;6.81;100.00;100157.34;5077017;28;19920;-60
2022/03/01 02:28:16;;;;;;;;;;;;;;;7.56;100.00;100153.13;5078168;28;20994;-61
2022/03/01 02:33:53;;;;;;;;;;;;;;;6.93;100.00;100160.78;5074417;28;20400;-60
2022/03/01 02:36:19;;;;;;;;;;;;;;;7.39;100.00;100148.84;5074472;28;20231;-60
2022/03/01 02:38:45;;;;;;;;;;;;;;;7.36;99.56;100146.28;5075258;28;19916;-61
2022/03/01 02:41:10;;;;;;;;;;;;;;;7.05;98.75;100148.84;5079291;28;20421;-61
2022/03/01 02:43:38;;;;;;;;;;;;;;;6.86;100.00;100154.78;5077709;28;19951;-61
2022/03/01 02:58:55;;;;;;;;;;;;;;;7.22;100.00;100159.09;5077700;27;19920;-60
2022/03/01 03:01:26;;;;;;;;;;;;;;;7.28;98.66;100156.53;5076388;28;19955;-58
2022/03/01 03:03:55;;;;;;;;;;;;;;;7.07;98.84;100161.63;5076413;28;19920;-60
2022/03/01 03:06:33;;;;;;;;;;;;;;;6.36;100.00;100169.16;5078104;28;20392;-60
2022/03/01 03:08:58;;;;;;;;;;;;;;;6.44;100.00;100166.63;5068778;28;20101;-58
2022/03/01 03:18:03;;;;;;;;;;;;;;;6.61;100.00;100169.25;5074599;28;19947;-60
2022/03/01 03:48:12;;;;;;;;;;;;;;;5.84;100.00;100144.16;5076263;28;19959;-62
2022/03/01 03:53:41;;;;;;;;;;;;;;;5.85;100.00;100140.75;5073627;28;19926;-61
2022/03/01 03:59:18;;;;;;;;;;;;;;;6.18;100.00;100123.91;5074334;28;19930;-61
2022/03/01 04:18:40;;;;;;;;;;;;;;;5.13;100.00;100118.97;5075967;28;19916;-61
2022/03/01 04:24:11;;;;;;;;;;;;;;;5.69;100.00;100112.56;5058157;28;20756;-57
2022/03/01 04:51:08;;;;;;;;;;;;;;;5.39;100.00;100088.53;5062415;28;20132;-62
2022/03/01 05:25:33;;;;;;;;;;;;;;;4.22;100.00;100059.47;5036622;28;19928;-60
2022/03/01 05:28:23;;;;;;;;;;;;;;;4.39;100.00;100077.47;5042940;28;20370;-61
2022/03/01 06:08:58;;;;;;;;;;;;;;;4.85;100.00;100085.56;5021772;28;19983;-60
2022/03/01 06:11:33;;;;;;;;;;;;;;;4.85;100.00;100088.09;5029970;28;19928;-62
2022/03/01 06:17:01;;;;;;;;;;;;;;;5.01;100.00;100089.94;5053790;28;21698;-61
2022/03/01 06:38:04;;;;;;;;;;;;;;;6.27;97.86;100129.06;5037295;28;19923;-61
2022/03/01 06:49:38;;;;;;;;;;;;;;;6.22;94.14;100133.28;5040331;28;19924;-62
2022/03/01 06:52:04;;;;;;;;;;;;;;;5.77;92.77;100141.56;5042183;28;19928;-58
2022/03/01 06:54:30;;;;;;;;;;;;;;;5.47;95.01;100145.63;5040336;28;20521;-62
2022/03/01 06:56:55;;;;;;;;;;;;;;;6.11;92.91;100140.06;5041667;28;19916;-59
2022/03/01 06:59:20;;;;;;;;;;;;;;;5.86;97.44;100137.38;5041646;28;20651;-62
2022/03/01 07:01:46;;;;;;;;;;;;;;;6.13;96.37;100124.72;5023599;28;19923;-60
2022/03/01 07:04:11;;;;;;;;;;;;;;;6.12;96.29;100131.56;5039616;28;19913;-59
2022/03/01 07:18:56;;;;;;;;;;;;;;;6.30;92.33;100119.69;5040296;28;21061;-62
2022/03/01 07:21:21;;;;;;;;;;;;;;;5.76;96.29;100117.69;5061267;28;19920;-62
2022/03/01 07:23:47;;;;;;;;;;;;;;;5.79;95.43;100120.28;5060528;28;19992;-60
2022/03/01 07:26:12;;;;;;;;;;;;;;;5.77;96.03;100110.88;5061005;28;19946;-57
2022/03/01 07:28:38;;;;;;;;;;;;;;;5.20;96.15;100123.28;5061206;28;20426;-60
2022/03/01 07:31:03;;;;;;;;;;;;;;;5.99;95.90;100117.00;5042722;28;19916;-62
2022/03/01 07:33:28;;;;;;;;;;;;;;;6.28;93.05;100112.84;5060863;28;19920;-62
2022/03/01 07:35:54;;;;;;;;;;;;;;;5.74;93.95;100121.09;5057715;28;19927;-61
2022/03/01 07:38:19;;;;;;;;;;;;;;;6.67;91.14;100118.91;5059916;28;19923;-61
2022/03/01 07:49:53;;;;;;;;;;;;;;;6.58;84.72;100116.34;5058567;28;20331;-62
2022/03/01 07:52:18;;;;;;;;;;;;;;;6.50;85.96;100115.50;5058672;28;19925;-62
2022/03/01 07:54:44;;;;;;;;;;;;;;;6.94;87.18;100109.56;5060720;28;19912;-62
2022/03/01 08:09:29;;;;;;;;;;;;;;;6.70;85.37;100124.06;5059064;28;20019;-62
2022/03/01 08:11:55;;;;;;;;;;;;;;;6.91;86.68;100117.22;5061140;28;20024;-62
2022/03/01 08:14:20;;;;;;;;;;;;;;;6.96;86.20;100113.00;5061848;28;21012;-61
2022/03/01 08:16:45;;;;;;;;;;;;;;;6.74;85.51;100114.66;5061524;28;19927;-61
2022/03/01 08:19:11;;;;;;;;;;;;;;;7.77;83.61;100106.91;5061153;28;20550;-62
2022/03/01 08:21:36;;;;;;;;;;;;;;;7.77;82.69;100106.91;5016228;28;20432;-62
2022/03/01 08:24:01;;;;;;;;;;;;;;;7.38;82.98;100112.97;5061010;28;19912;-60
2022/03/01 08:26:27;;;;;;;;;;;;;;;7.85;82.25;100114.59;5061357;28;20003;-61
2022/03/01 08:28:52;;;;;;;;;;;;;;;7.38;85.20;100118.09;5041803;28;19966;-63
2022/03/01 08:49:42;;;;;;;;;;;;;;;8.62;80.37;100099.72;5057249;28;20335;-61
2022/03/01 08:52:07;;;;;;;;;;;;;;;9.47;76.01;100092.19;5059802;28;20015;-60
2022/03/01 08:54:35;;;;;;;;;;;;;;;9.25;79.45;100095.81;5059928;28;19920;-61
2022/03/01 08:57:01;;;;;;;;;;;;;;;8.87;77.59;100094.41;5060907;28;19919;-60
2022/03/01 08:59:26;;;;;;;;;;;;;;;8.66;78.48;100095.41;5059676;28;20270;-60
2022/03/01 09:01:51;;;;;;;;;;;;;;;8.74;76.71;100098.78;5059169;28;21147;-62
2022/03/01 09:04:17;;;;;;;;;;;;;;;9.94;77.75;100098.50;5060408;28;19916;-62
2022/03/01 09:06:42;;;;;;;;;;;;;;;9.76;73.64;100098.72;5060283;28;19916;-61
2022/03/01 09:09:07;;;;;;;;;;;;;;;9.62;74.78;100096.28;5060004;28;19927;-61
2022/03/01 09:11:33;;;;;;;;;;;;;;;9.44;74.40;100097.31;5059869;28;19924;-62
2022/03/01 09:13:58;;;;;;;;;;;;;;;9.90;75.82;100102.00;5059584;28;19928;-62
2022/03/01 09:16:23;;;;;;;;;;;;;;;9.82;69.55;100101.22;5060375;28;20278;-62
2022/03/01 09:18:49;;;;;;;;;;;;;;;9.01;72.32;100100.31;5060097;28;19916;-58
2022/03/01 09:21:14;;;;;;;;;;;;;;;9.87;69.51;100099.44;5060166;28;19993;-60
2022/03/01 09:23:40;;;;;;;;;;;;;;;9.91;66.27;100097.69;5059340;28;20868;-60
2022/03/01 09:26:05;;;;;;;;;;;;;;;10.11;64.74;100105.19;5060760;28;19923;-61
2022/03/01 09:28:31;;;;;;;;;;;;;;;11.16;68.49;100108.00;5041238;28;20289;-61
2022/03/01 09:30:56;;;;;;;;;;;;;;;10.89;71.37;100117.00;5060040;28;19927;-63
2022/03/01 09:33:21;;;;;;;;;;;;;;;10.27;71.22;100112.69;5027477;28;19912;-60
2022/03/01 09:35:47;;;;;;;;;;;;;;;11.16;64.00;100105.41;5060493;28;19913;-60
2022/03/01 09:38:12;;;;;;;;;;;;;;;10.80;62.74;100101.69;5060096;28;19917;-62
2022/03/01 09:40:38;;;;;;;;;;;;;;;11.48;64.50;100098.84;5060145;28;19916;-62
2022/03/01 09:43:03;;;;;;;;;;;;;;;11.14;65.69;100104.59;5059643;28;19932;-63
2022/03/01 09:45:28;;;;;;;;;;;;;;;10.15;58.90;100104.25;5059652;28;19925;-63
2022/03/01 09:48:03;;;;;;;;;;;;;;;10.64;66.50;100106.22;5059415;28;19924;-61
2022/03/01 09:50:28;;;;;;;;;;;;;;;10.83;64.05;100102.50;5059172;28;20270;-62
2022/03/01 09:52:57;;;;;;;;;;;;;;;11.12;65.28;100098.59;5050824;28;19924;-62
2022/03/01 09:55:23;;;;;;;;;;;;;;;10.86;57.94;100092.16;5058921;28;19972;-61
2022/03/01 09:57:48;;;;;;;;;;;;;;;11.20;64.46;100091.59;5058190;28;20039;-63
2022/03/01 10:00:14;;;;;;;;;;;;;;;10.74;68.80;100094.91;5039758;28;20293;-62
2022/03/01 10:02:40;;;;;;;;;;;;;;;10.51;63.24;100089.22;5063176;28;19916;-62
2022/03/01 10:05:05;;;;;;;;;;;;;;;11.70;70.01;100092.41;5063290;28;20366;-60
2022/03/01 10:08:05;;;;;;;;;;;;;;;11.16;63.29;100084.78;5063451;28;19922;-61
2022/03/01 10:19:39;;;;;;;;;;;;;;;12.51;66.49;100099.38;5061471;28;19936;-62
2022/03/01 10:22:04;;;;;;;;;;;;;;;11.85;67.18;100105.88;5062564;28;19920;-61
2022/03/01 10:24:30;;;;;;;;;;;;;;;12.15;58.39;100096.69;5062794;28;19974;-62
2022/03/01 10:26:59;;;;;;;;;;;;;;;11.12;59.64;100108.91;5062280;28;19931;-61
2022/03/01 10:29:28;;;;;;;;;;;;;;;11.44;66.30;100110.94;5043775;28;19951;-62
2022/03/01 10:31:55;;;;;;;;;;;;;;;11.94;64.89;100105.75;5062999;28;19999;-61
2022/03/01 10:34:20;;;;;;;;;;;;;;;10.73;60.64;100111.22;5062351;28;20294;-63
2022/03/01 10:36:49;;;;;;;;;;;;;;;11.55;56.98;100103.00;5027326;28;19928;-62
2022/03/01 10:39:21;;;;;;;;;;;;;;;11.36;59.44;100107.66;5031728;28;19981;-61
2022/03/01 10:41:47;;;;;;;;;;;;;;;11.97;62.66;100104.81;5062603;28;19972;-62
2022/03/01 10:44:14;;;;;;;;;;;;;;;11.79;65.13;100106.00;5062691;28;19999;-61
2022/03/01 10:53:20;;;;;;;;;;;;;;;11.79;63.79;100106.88;5058863;28;19969;-61
2022/03/01 10:55:46;;;;;;;;;;;;;;;12.21;61.52;100098.31;5063558;28;20373;-63
2022/03/01 11:10:32;;;;;;;;;;;;;;;11.69;64.41;100095.84;5061941;28;19926;-61
2022/03/01 11:12:58;;;;;;;;;;;;;;;11.51;60.94;100085.88;5060357;28;20047;-60
2022/03/01 11:15:26;;;;;;;;;;;;;;;11.32;62.17;100090.53;5061205;28;19920;-61
2022/03/01 11:17:52;;;;;;;;;;;;;;;11.49;65.75;100097.94;5026838;28;19966;-60
2022/03/01 11:39:32;;;;;;;;;;;;;;;12.82;61.08;100112.47;5059220;28;19927;-60
2022/03/01 11:45:39;;;;;;;;;;;;;;;14.21;59.40;100107.13;5054836;28;20186;-62
2022/03/01 11:48:42;;;;;;;;;;;;;;;13.80;61.96;100110.00;5060212;28;19981;-62
2022/03/01 11:51:07;;;;;;;;;;;;;;;13.69;61.56;100101.69;5061405;28;19943;-63
2022/03/01 11:53:36;;;;;;;;;;;;;;;13.58;53.25;100093.34;5060636;28;19917;-63
2022/03/01 11:56:03;;;;;;;;;;;;;;;13.08;59.13;100092.88;5061404;28;19927;-62
2022/03/01 11:58:28;;;;;;;;;;;;;;;13.61;58.88;100093.25;5060402;28;20341;-61
2022/03/01 12:00:54;;;;;;;;;;;;;;;14.25;67.27;100089.75;5060146;28;20015;-63
2022/03/01 12:09:26;;;;;;;;;;;;;;;14.19;52.87;100083.84;5058934;28;19931;-62
2022/03/01 12:12:11;;;;;;;;;;;;;;;14.32;55.50;100073.13;5060702;28;20354;-61
2022/03/01 12:14:38;;;;;;;;;;;;;;;15.09;61.83;100068.97;5060358;28;19919;-61
2022/03/01 12:17:05;;;;;;;;;;;;;;;15.45;60.76;100072.06;5058130;28;19978;-62
2022/03/01 12:19:31;;;;;;;;;;;;;;;14.46;61.34;100070.97;5041364;28;19960;-60
2022/03/01 12:21:58;;;;;;;;;;;;;;;15.53;59.26;100060.56;5061123;28;19920;-63
2022/03/01 12:24:24;;;;;;;;;;;;;;;14.80;62.37;100064.72;5060394;28;20294;-61
2022/03/01 12:26:50;;;;;;;;;;;;;;;14.87;59.24;100066.25;5058834;28;19957;-63
2022/03/01 12:29:33;;;;;;;;;;;;;;;15.57;64.09;100062.97;5060058;28;19932;-63
2022/03/01 12:32:06;;;;;;;;;;;;;;;15.03;53.57;100059.66;5058759;28;19920;-63
2022/03/01 12:34:32;;;;;;;;;;;;;;;13.18;48.72;100063.31;5028995;28;19922;-62
2022/03/01 12:36:59;;;;;;;;;;;;;;;12.15;53.55;100073.47;5059877;28;19960;-62
2022/03/01 12:39:27;;;;;;;;;;;;;;;12.31;52.98;100073.97;5059095;28;19922;-63
2022/03/01 12:41:52;;;;;;;;;;;;;;;11.91;56.12;100074.84;5060052;28;19982;-62
2022/03/01 12:44:18;;;;;;;;;;;;;;;12.67;53.10;100066.28;5040432;28;19921;-63
2022/03/01 12:46:43;;;;;;;;;;;;;;;12.02;52.27;100067.72;5059459;28;19920;-62
2022/03/01 12:49:09;;;;;;;;;;;;;;;11.98;57.54;100076.41;5059364;28;19927;-63
2022/03/01 12:51:35;;;;;;;;;;;;;;;13.33;53.37;100070.69;5059592;28;20016;-60
2022/03/01 12:57:06;;;;;;;;;;;;;;;13.52;65.73;100075.38;5057204;28;19973;-62
2022/03/01 13:08:56;;;;;;;;;;;;;;;15.01;50.76;100051.06;5057996;28;19963;-62
2022/03/01 13:11:36;;;;;;;;;;;;;;;15.41;57.47;100054.88;5057340;28;19930;-62
2022/03/01 13:29:26;;;;;;;;;;;;;;;13.77;51.07;100055.69;5055402;28;19920;-68
2022/03/01 13:32:02;;;;;;;;;;;;;;;13.12;51.10;100056.56;5035049;28;19931;-62
2022/03/01 13:34:28;;;;;;;;;;;;;;;13.87;50.94;100051.13;5053473;28;19930;-63
2022/03/01 13:36:53;;;;;;;;;;;;;;;14.67;51.45;100034.94;5059921;28;21068;-63
2022/03/01 13:39:19;;;;;;;;;;;;;;;16.11;53.63;100029.88;5057752;28;20269;-62
2022/03/01 13:41:46;;;;;;;;;;;;;;;15.01;48.78;100019.94;5041999;28;19923;-62
2022/03/01 13:44:16;;;;;;;;;;;;;;;15.74;54.24;100031.25;5055295;28;19916;-63
2022/03/01 13:47:00;;;;;;;;;;;;;;;14.53;50.47;100022.34;5056895;28;19961;-62
2022/03/01 13:49:28;;;;;;;;;;;;;;;16.06;54.71;100017.06;5060418;28;19999;-61
2022/03/01 13:52:12;;;;;;;;;;;;;;;16.58;47.57;100008.97;5053614;28;19964;-61
2022/03/01 13:54:38;;;;;;;;;;;;;;;16.01;48.08;100002.53;5054646;28;19924;-61
2022/03/01 13:57:04;;;;;;;;;;;;;;;16.38;47.71;99998.53;5044630;28;20343;-62
2022/03/01 13:59:29;;;;;;;;;;;;;;;15.67;46.24;99993.41;5059400;28;20927;-62
2022/03/01 14:01:54;;;;;;;;;;;;;;;16.22;47.88;99999.13;5058240;28;19992;-61
2022/03/01 14:04:23;;;;;;;;;;;;;;;15.83;51.04;100001.50;5037943;28;19925;-62
2022/03/01 14:06:50;;;;;;;;;;;;;;;16.50;46.08;99992.81;5061909;28;19963;-60
2022/03/01 14:09:15;;;;;;;;;;;;;;;15.24;50.85;99997.56;5037225;28;19931;-61
2022/03/01 14:11:41;;;;;;;;;;;;;;;15.30;47.30;99988.69;5057672;28;19916;-62
2022/03/01 14:14:17;;;;;;;;;;;;;;;15.88;48.49;99986.59;5040131;28;19924;-62
2022/03/01 14:16:43;;;;;;;;;;;;;;;16.63;44.54;99981.00;5059805;28;20050;-61
2022/03/01 14:19:09;;;;;;;;;;;;;;;16.88;47.88;99980.03;5057089;28;20771;-61
2022/03/01 14:21:34;;;;;;;;;;;;;;;16.39;43.39;99969.84;5040515;28;19935;-62
2022/03/01 14:24:00;;;;;;;;;;;;;;;15.68;46.41;99979.50;5059367;28;19948;-62
2022/03/01 14:26:27;;;;;;;;;;;;;;;16.31;48.65;99967.56;5038046;28;19960;-62
2022/03/01 14:28:58;;;;;;;;;;;;;;;15.65;43.89;99962.28;5041087;28;19924;-62
2022/03/01 14:31:24;;;;;;;;;;;;;;;16.27;44.70;99958.19;5058264;28;20370;-61
2022/03/01 14:49:16;;;;;;;;;;;;;;;15.48;43.19;99970.69;5057980;28;19920;-61
2022/03/01 14:54:45;;;;;;;;;;;;;;;15.80;54.13;99983.44;5057173;28;19942;-62
2022/03/01 14:57:11;;;;;;;;;;;;;;;15.60;57.25;99979.81;5060125;28;19926;-62
2022/03/01 14:59:38;;;;;;;;;;;;;;;15.97;51.61;99965.44;5060303;28;20289;-61
2022/03/01 15:02:03;;;;;;;;;;;;;;;14.11;58.09;99979.59;5040974;28;19936;-61
2022/03/01 15:04:28;;;;;;;;;;;;;;;13.91;55.90;99974.19;5060211;28;19927;-61
2022/03/01 15:06:54;;;;;;;;;;;;;;;13.74;60.06;99985.06;5059979;28;19955;-62
2022/03/01 15:09:19;;;;;;;;;;;;;;;13.88;57.24;99979.47;5041908;28;19923;-61
2022/03/01 15:11:44;;;;;;;;;;;;;;;13.55;58.41;99984.75;5059596;28;19928;-62
2022/03/01 15:14:10;;;;;;;;;;;;;;;13.93;56.68;99975.00;5059854;28;19916;-60
2022/03/01 15:16:45;;;;;;;;;;;;;;;13.80;60.94;99974.53;5057876;28;19920;-62
2022/03/01 15:25:49;;;;;;;;;;;;;;;14.72;63.44;99955.25;5036667;28;19999;-61
2022/03/01 15:49:41;;;;;;;;;;;;;;;13.22;71.61;99945.09;5048269;28;19920;-61
2022/03/01 15:52:07;;;;;;;;;;;;;;;13.34;67.88;99945.66;5052806;28;19965;-60
2022/03/01 15:54:34;;;;;;;;;;;;;;;12.81;67.63;99944.47;5051440;28;20602;-60
2022/03/01 15:57:00;;;;;;;;;;;;;;;13.70;67.67;99932.50;5050518;28;19927;-61
2022/03/01 15:59:25;;;;;;;;;;;;;;;12.73;69.56;99947.25;5051309;28;19916;-60
2022/03/01 16:01:51;;;;;;;;;;;;;;;14.07;64.51;99936.59;5030923;28;19921;-60
2022/03/01 16:04:16;;;;;;;;;;;;;;;13.56;68.87;99945.00;5048177;28;19965;-60
2022/03/01 16:06:41;;;;;;;;;;;;;;;12.44;75.58;99951.41;5047162;28;19921;-61
2022/03/01 16:09:07;;;;;;;;;;;;;;;12.83;70.33;99943.53;5047176;28;19913;-60
2022/03/01 16:11:32;;;;;;;;;;;;;;;12.97;68.96;99935.41;5047558;28;19916;-61
2022/03/01 16:13:57;;;;;;;;;;;;;;;12.48;69.42;99947.03;5045056;28;19985;-60
2022/03/01 16:16:22;;;;;;;;;;;;;;;13.06;65.46;99942.06;5048747;28;19924;-60
2022/03/01 16:18:48;;;;;;;;;;;;;;;12.72;66.95;99942.97;5039588;28;20961;-61
2022/03/01 16:21:13;;;;;;;;;;;;;;;14.05;69.32;99933.19;5058304;28;19935;-61
2022/03/01 16:23:39;;;;;;;;;;;;;;;13.37;67.58;99940.38;5037404;28;20293;-61
2022/03/01 16:26:05;;;;;;;;;;;;;;;13.33;70.75;99928.41;5039099;28;19920;-60
2022/03/01 16:28:30;;;;;;;;;;;;;;;14.33;69.02;99914.16;5058058;28;19927;-61
2022/03/01 16:30:56;;;;;;;;;;;;;;;14.21;69.61;99918.84;5058104;28;19917;-61
2022/03/01 16:33:21;;;;;;;;;;;;;;;14.03;71.03;99922.03;5056823;28;20289;-61
2022/03/01 16:35:46;;;;;;;;;;;;;;;13.54;66.03;99933.84;5055386;28;19923;-61
2022/03/01 16:38:12;;;;;;;;;;;;;;;12.82;70.59;99941.84;5057140;28;19921;-61
2022/03/01 16:40:37;;;;;;;;;;;;;;;13.27;74.89;99949.22;5058418;28;19927;-61
2022/03/01 16:43:02;;;;;;;;;;;;;;;12.82;69.32;99940.97;5040923;28;19920;-60
2022/03/01 16:45:28;;;;;;;;;;;;;;;13.50;68.59;99934.84;5058271;28;19920;-62
2022/03/01 16:47:54;;;;;;;;;;;;;;;13.13;71.57;99946.19;5058303;28;19916;-62
2022/03/01 16:50:19;;;;;;;;;;;;;;;13.51;69.93;99939.97;5058691;28;19999;-61
2022/03/01 16:52:45;;;;;;;;;;;;;;;13.78;71.95;99945.25;5058358;28;19916;-62
2022/03/01 16:55:10;;;;;;;;;;;;;;;12.89;73.16;99953.72;5058971;28;19973;-62
2022/03/01 16:57:36;;;;;;;;;;;;;;;13.76;70.85;99945.28;5059011;28;20328;-61
2022/03/01 17:00:03;;;;;;;;;;;;;;;12.74;74.68;99954.94;5057753;28;20051;-62
2022/03/01 17:02:28;;;;;;;;;;;;;;;13.46;71.46;99953.97;5057975;28;20637;-62
2022/03/01 17:04:53;;;;;;;;;;;;;;;13.99;72.16;99954.94;5057983;28;19913;-61
2022/03/01 17:07:19;;;;;;;;;;;;;;;13.03;73.01;99970.63;5058080;28;19912;-61
2022/03/01 17:09:44;;;;;;;;;;;;;;;13.17;75.17;99964.16;5057919;28;19974;-61
2022/03/01 17:12:09;;;;;;;;;;;;;;;12.90;74.70;99965.75;5061012;28;19923;-61
2022/03/01 17:14:35;;;;;;;;;;;;;;;13.68;76.72;99959.34;5043523;28;20464;-61
2022/03/01 17:17:00;;;;;;;;;;;;;;;13.49;79.66;99964.22;5064607;28;19922;-61
2022/03/01 17:19:26;;;;;;;;;;;;;;;13.12;78.49;99960.03;5064123;28;20063;-61
2022/03/01 17:21:51;;;;;;;;;;;;;;;13.62;80.12;99960.38;5064526;28;19925;-61
2022/03/01 17:24:17;;;;;;;;;;;;;;;13.63;79.10;99962.06;5064840;28;19928;-61
2022/03/01 17:26:42;;;;;;;;;;;;;;;13.59;80.42;99965.63;5064788;28;19982;-61
2022/03/01 17:29:07;;;;;;;;;;;;;;;13.41;80.80;99966.16;5046987;28;19912;-61
2022/03/01 17:31:32;;;;;;;;;;;;;;;12.77;77.16;99965.22;5065506;28;19923;-61
2022/03/01 17:33:58;;;;;;;;;;;;;;;13.04;80.86;99964.53;5063545;28;19924;-61
2022/03/01 17:36:23;;;;;;;;;;;;;;;13.49;81.60;99971.97;5064168;28;19916;-61
2022/03/01 17:48:08;;;;;;;;;;;;;;;12.19;95.21;99976.13;5061804;28;19928;-60
2022/03/01 17:59:42;;;;;;;;;;;;;;;11.91;94.45;99961.25;5061650;28;19924;-61
2022/03/01 18:02:08;;;;;;;;;;;;;;;11.70;92.78;99958.22;5062883;28;19924;-61
2022/03/01 18:04:33;;;;;;;;;;;;;;;11.86;95.16;99956.16;5063419;28;19917;-61
2022/03/01 18:06:58;;;;;;;;;;;;;;;12.45;92.95;99953.13;5063772;28;19920;-60
2022/03/01 18:09:24;;;;;;;;;;;;;;;12.63;90.76;99961.28;5063160;28;19916;-61
2022/03/01 18:11:49;;;;;;;;;;;;;;;12.31;90.42;99960.34;5063219;28;20366;-62
2022/03/01 18:14:15;;;;;;;;;;;;;;;11.69;95.07;99969.41;5062243;28;19920;-62
2022/03/01 18:16:40;;;;;;;;;;;;;;;11.86;92.35;99966.50;5062524;28;19916;-62
2022/03/01 18:34:20;;;;;;;;;;;;;;;12.59;89.89;99982.91;5055883;28;19974;-59
2022/03/01 18:36:46;;;;;;;;;;;;;;;11.93;90.82;99987.91;5062275;28;19924;-60
2022/03/01 18:39:12;;;;;;;;;;;;;;;12.13;91.59;99987.44;5061483;28;19920;-60
2022/03/01 18:41:37;;;;;;;;;;;;;;;12.16;91.37;99976.19;5043135;28;21192;-60
2022/03/01 19:18:08;;;;;;;;;;;;;;;11.81;87.74;99981.19;5059442;28;19927;-61
2022/03/01 19:24:12;;;;;;;;;;;;;;;11.68;85.50;99985.78;5058376;28;20749;-61
2022/03/01 19:29:48;;;;;;;;;;;;;;;11.48;88.79;99988.78;5060503;28;20138;-61
2022/03/01 19:32:13;;;;;;;;;;;;;;;11.55;90.98;99992.06;5043504;28;20007;-61
2022/03/01 19:34:40;;;;;;;;;;;;;;;11.36;90.09;99983.00;5059759;28;19927;-62
2022/03/01 19:37:06;;;;;;;;;;;;;;;11.37;90.07;99982.97;5019855;28;19927;-61
2022/03/01 19:39:31;;;;;;;;;;;;;;;10.62;90.62;99992.03;5042077;28;19913;-61
2022/03/01 19:41:56;;;;;;;;;;;;;;;11.00;88.79;99987.97;5062121;28;20390;-61
2022/03/01 19:44:21;;;;;;;;;;;;;;;11.22;87.46;99984.13;5059435;28;20416;-61
2022/03/01 19:46:47;;;;;;;;;;;;;;;10.85;85.22;99982.19;5039524;28;20935;-60
2022/03/01 19:49:27;;;;;;;;;;;;;;;10.45;83.65;99988.03;5057771;28;19977;-60
2022/03/01 19:51:53;;;;;;;;;;;;;;;10.59;79.19;99984.38;5059697;28;19913;-60
2022/03/01 20:00:28;;;;;;;;;;;;;;;10.63;78.67;99986.88;5058091;28;19924;-60
2022/03/01 20:06:05;;;;;;;;;;;;;;;10.50;82.36;99979.38;5052458;28;20011;-60
2022/03/01 20:08:45;;;;;;;;;;;;;;;10.63;81.86;99980.88;5054474;28;20007;-61
2022/03/01 20:11:11;;;;;;;;;;;;;;;10.41;82.72;99990.66;5057145;28;20452;-61
2022/03/01 20:13:37;;;;;;;;;;;;;;;10.35;84.38;99991.59;5057465;28;20101;-60
2022/03/01 20:16:03;;;;;;;;;;;;;;;10.39;80.65;99994.97;5058598;28;19924;-61
2022/03/01 20:18:28;;;;;;;;;;;;;;;10.13;79.53;99995.34;5039373;28;19916;-61
2022/03/01 20:21:16;;;;;;;;;;;;;;;9.27;82.79;99993.84;5035675;28;20646;-61
2022/03/01 20:39:06;;;;;;;;;;;;;;;9.09;76.62;99972.59;5040917;28;20417;-61
2022/03/01 20:41:32;;;;;;;;;;;;;;;8.93;82.77;99987.31;5023919;28;19960;-61
2022/03/01 20:43:58;;;;;;;;;;;;;;;8.13;74.58;99967.38;5039160;28;19916;-59
2022/03/01 20:46:23;;;;;;;;;;;;;;;8.36;73.24;99969.78;5039290;28;20416;-61
2022/03/01 20:48:49;;;;;;;;;;;;;;;8.47;76.59;99979.16;5049862;28;19921;-60
2022/03/01 20:51:14;;;;;;;;;;;;;;;8.58;78.98;99980.78;5051168;28;19916;-61
2022/03/01 20:53:40;;;;;;;;;;;;;;;8.33;83.30;99985.22;5051592;28;19913;-60
2022/03/01 20:59:15;;;;;;;;;;;;;;;8.24;85.91;99980.16;5027672;28;20401;-60
2022/03/01 21:01:40;;;;;;;;;;;;;;;8.95;79.09;99975.31;5048469;28;19968;-62
2022/03/01 21:04:06;;;;;;;;;;;;;;;8.45;79.89;99978.31;5032330;28;20033;-60
2022/03/01 21:06:32;;;;;;;;;;;;;;;8.44;82.29;99987.75;5028176;28;19921;-62
2022/03/01 21:08:57;;;;;;;;;;;;;;;8.77;76.64;99978.88;5042252;28;19928;-62
2022/03/01 21:11:24;;;;;;;;;;;;;;;7.77;84.33;99994.09;5030331;28;20352;-62
2022/03/01 21:13:50;;;;;;;;;;;;;;;8.72;82.18;99982.38;5045831;28;20847;-61
2022/03/01 21:16:15;;;;;;;;;;;;;;;8.48;75.72;99974.00;5013970;28;19925;-61
2022/03/01 21:28:08;;;;;;;;;;;;;;;8.61;75.80;99963.66;5048041;28;19958;-60
2022/03/01 22:58:28;;;;;;;;;;;;;;;7.65;79.70;99930.91;5059020;28;19923;-62
2022/03/01 23:39:30;;;;;;;;;;;;;;;7.89;81.86;99911.97;5038911;28;19917;-61
2022/03/01 23:45:36;;;;;;;;;;;;;;;8.13;81.93;99925.47;5030705;28;19936;-60
2022/03/01 23:48:44;;;;;;;;;;;;;;;8.42;77.78;99927.84;5018335;28;19964;-62
2022/03/01 23:58:09;;;;;;;;;;;;;;;7.90;79.59;99921.34;5032198;28;19928;-61
